CheckWX is a tool to help pilots better visualize weather data.  It is not intended as a substitute for an official pre-flight weather briefing.

17:19:40 UTC

KGSO TAF
Piedmont Triad International Airport
Greensboro, North Carolina, USA
KGSO 051720Z 0518/0618 22005KT P6SM SCT100 SCT250 TEMPO 0600/0603 -SHRA BKN050 OVC110

Apr-5@
18:00 UTC

Apr-5 @ 18:00 UTC

Apr-6@
18:00 UTC

Apr-6 @ 18:00 UTC

TAF KGSO 051720Z 0518/0618 22005KT P6SM SCT100 SCT250
Wind
  • 220° at 5 KTS
Cloud Levels
  • Scattered at 10,000' AGL
  • Scattered at 25,000' AGL

Apr-6@
00:00 UTC

Apr-6 @ 00:00 UTC

Apr-6@
03:00 UTC

Apr-6 @ 03:00 UTC

TEMPO 0600/0603 -SHRA BKN050 OVC110

Expired

Conditions
Light Showers, Rain
Cloud Levels
  • Broken at 5,000' AGL
  • Overcast at 11,000' AGL